createdAt,value
2023-04-01T00:00:09.825Z,23.4
2023-04-01T00:01:11.684Z,23.4
2023-04-01T00:02:13.671Z,23.4
2023-04-01T00:03:16.132Z,23.3
2023-04-01T00:04:18.759Z,23.3
2023-04-01T00:05:20.755Z,23.3
2023-04-01T00:06:23.188Z,23.3
2023-04-01T00:07:25.052Z,23.3
2023-04-01T00:08:32.806Z,23.3
2023-04-01T00:09:34.759Z,23.3
2023-04-01T00:10:36.646Z,23.3
2023-04-01T00:11:38.512Z,23.3
2023-04-01T00:12:43.092Z,23.3
2023-04-01T00:13:44.853Z,23.3
2023-04-01T00:14:46.705Z,23.3
2023-04-01T00:15:48.547Z,23.3
2023-04-01T00:16:50.554Z,23.3
2023-04-01T00:17:52.787Z,23.3
2023-04-01T00:18:54.899Z,23.3
2023-04-01T00:19:56.755Z,23.3
2023-04-01T00:20:58.554Z,23.3
2023-04-01T00:22:00.371Z,23.3
2023-04-01T00:23:02.172Z,23.3
2023-04-01T00:24:04.224Z,23.2
2023-04-01T00:25:06.129Z,23.2
2023-04-01T00:26:07.945Z,23.3
2023-04-01T00:27:09.818Z,23.3
2023-04-01T00:28:11.722Z,23.3
2023-04-01T00:29:13.612Z,23.3
2023-04-01T00:30:15.483Z,23.2
2023-04-01T00:31:17.365Z,23.2
2023-04-01T00:32:19.684Z,23.2
2023-04-01T00:33:21.541Z,23.2
2023-04-01T00:34:23.566Z,23.2
2023-04-01T00:35:25.467Z,23.2
2023-04-01T00:36:27.321Z,23.2
2023-04-01T00:37:29.406Z,23.2
2023-04-01T00:38:31.301Z,23.2
2023-04-01T00:39:33.190Z,23.2
2023-04-01T00:40:35.006Z,23.2
2023-04-01T00:41:36.950Z,23.2
2023-04-01T00:42:38.728Z,23.2
2023-04-01T00:43:40.543Z,23.2
2023-04-01T00:44:42.408Z,23.2
2023-04-01T00:45:44.248Z,23.2
2023-04-01T00:46:46.046Z,23.2
2023-04-01T00:47:48.105Z,23.2
2023-04-01T00:48:50.079Z,23.2
2023-04-01T00:49:51.973Z,23.2
2023-04-01T00:50:53.837Z,23.2
2023-04-01T00:51:55.740Z,23.1
2023-04-01T00:52:57.620Z,23.1
2023-04-01T00:53:59.488Z,23.1
2023-04-01T00:55:01.418Z,23.1
2023-04-01T00:56:03.278Z,23.1
2023-04-01T00:57:05.198Z,23.1
2023-04-01T00:58:07.182Z,23.1
2023-04-01T00:59:09.040Z,23.1
2023-04-01T01:00:11.186Z,23.1
2023-04-01T01:01:13.056Z,23.1
2023-04-01T01:02:15.263Z,23.1
2023-04-01T01:03:17.665Z,23.1
2023-04-01T01:04:19.727Z,23.1
2023-04-01T01:05:22.020Z,23.1
2023-04-01T01:06:26.444Z,23.1
2023-04-01T01:07:28.391Z,23.1
2023-04-01T01:08:30.342Z,23.1
2023-04-01T01:09:32.239Z,23.1
2023-04-01T01:10:34.090Z,23.1
2023-04-01T01:11:40.861Z,23.1
2023-04-01T01:12:45.766Z,23.1
2023-04-01T01:13:47.628Z,23.1
2023-04-01T01:14:49.465Z,23.1
2023-04-01T01:15:51.324Z,23.1
2023-04-01T01:16:53.163Z,23.1
2023-04-01T01:17:55.344Z,23.1
2023-04-01T01:18:57.275Z,23
2023-04-01T01:19:59.138Z,23.1
2023-04-01T01:21:01.051Z,23
2023-04-01T01:22:02.955Z,23
2023-04-01T01:23:04.948Z,23
2023-04-01T01:24:06.750Z,23
2023-04-01T01:25:08.628Z,23
2023-04-01T01:26:10.537Z,23
2023-04-01T01:27:12.393Z,23
2023-04-01T01:28:14.236Z,23.1
2023-04-01T01:29:16.052Z,23.1
2023-04-01T01:30:17.994Z,23
2023-04-01T01:31:19.908Z,23
2023-04-01T01:32:21.924Z,23
2023-04-01T01:33:23.789Z,23
2023-04-01T01:34:25.645Z,23
2023-04-01T01:35:27.530Z,23
2023-04-01T01:36:29.370Z,23
2023-04-01T01:37:31.498Z,23
2023-04-01T01:38:33.248Z,23
2023-04-01T01:39:35.107Z,23
2023-04-01T01:40:37.058Z,23
2023-04-01T01:41:39.004Z,23
2023-04-01T01:42:40.867Z,23
2023-04-01T01:43:42.707Z,23.1
2023-04-01T01:44:44.511Z,23
2023-04-01T01:45:46.667Z,23
2023-04-01T01:46:48.663Z,23
2023-04-01T01:47:50.529Z,23
2023-04-01T01:48:52.536Z,23
2023-04-01T01:49:54.523Z,23
2023-04-01T01:50:56.393Z,23
2023-04-01T01:51:58.213Z,23
2023-04-01T01:53:00.139Z,23
2023-04-01T01:54:02.026Z,23
2023-04-01T01:55:03.876Z,23
2023-04-01T01:56:05.769Z,23
2023-04-01T01:57:07.712Z,23
2023-04-01T01:58:09.837Z,23
2023-04-01T01:59:11.678Z,23
2023-04-01T02:00:13.423Z,23
2023-04-01T02:01:15.272Z,23
2023-04-01T02:02:17.230Z,22.9
2023-04-01T02:03:19.111Z,22.9
2023-04-01T02:04:20.798Z,22.9
2023-04-01T02:05:22.783Z,22.9
2023-04-01T02:06:24.703Z,22.9
2023-04-01T02:07:26.620Z,22.9
2023-04-01T02:08:28.538Z,22.9
2023-04-01T02:09:30.320Z,22.9
2023-04-01T02:10:32.131Z,22.9
2023-04-01T02:11:33.998Z,22.9
2023-04-01T02:12:35.848Z,22.9
2023-04-01T02:13:37.640Z,22.9
2023-04-01T02:14:39.539Z,22.9
2023-04-01T02:15:41.313Z,22.9
2023-04-01T02:16:43.242Z,22.9
2023-04-01T02:17:45.105Z,22.9
2023-04-01T02:18:47.280Z,22.9
2023-04-01T02:19:49.105Z,22.9
2023-04-01T02:20:50.946Z,22.9
2023-04-01T02:21:52.799Z,22.9
2023-04-01T02:22:54.645Z,22.9
2023-04-01T02:23:56.585Z,22.9
2023-04-01T02:24:58.487Z,22.9
2023-04-01T02:26:00.396Z,22.9
2023-04-01T02:27:02.050Z,22.9
2023-04-01T02:28:03.966Z,22.9
2023-04-01T02:29:05.837Z,22.9
2023-04-01T02:30:07.583Z,22.9
2023-04-01T02:31:09.481Z,22.9
2023-04-01T02:32:11.593Z,22.9
2023-04-01T02:33:13.531Z,22.9
2023-04-01T02:34:15.502Z,22.9
2023-04-01T02:35:17.349Z,22.9
2023-04-01T02:36:19.161Z,22.8
2023-04-01T02:37:21.162Z,22.9
2023-04-01T02:38:22.991Z,22.9
2023-04-01T02:39:24.912Z,22.9
2023-04-01T02:40:26.814Z,22.9
2023-04-01T02:41:28.744Z,22.8
2023-04-01T02:42:30.607Z,22.8
2023-04-01T02:43:32.463Z,22.8
2023-04-01T02:44:34.282Z,22.8
2023-04-01T02:45:36.161Z,22.9
2023-04-01T02:46:38.088Z,22.9
2023-04-01T02:47:40.285Z,22.9
2023-04-01T02:48:42.115Z,22.9
2023-04-01T02:49:44.051Z,22.9
2023-04-01T02:50:45.794Z,22.8
2023-04-01T02:51:47.663Z,22.8
2023-04-01T02:52:49.528Z,22.8
2023-04-01T02:53:51.460Z,22.8
2023-04-01T02:54:53.449Z,22.8
2023-04-01T02:55:55.482Z,22.8
2023-04-01T02:56:57.383Z,22.8
2023-04-01T02:57:59.592Z,22.8
2023-04-01T02:59:01.335Z,22.8
2023-04-01T03:00:03.240Z,22.8
2023-04-01T03:01:05.151Z,22.8
2023-04-01T03:02:07.243Z,22.8
2023-04-01T03:03:09.584Z,22.8
2023-04-01T03:04:12.131Z,22.8
2023-04-01T03:05:13.878Z,22.8
2023-04-01T03:06:15.722Z,22.8
2023-04-01T03:07:17.580Z,22.8
2023-04-01T03:08:19.607Z,22.8
2023-04-01T03:09:21.481Z,22.8
2023-04-01T03:10:23.358Z,22.8
2023-04-01T03:11:25.169Z,22.8
2023-04-01T03:12:27.056Z,22.8
2023-04-01T03:13:28.880Z,22.8
2023-04-01T03:14:30.938Z,22.8
2023-04-01T03:15:32.913Z,22.8
2023-04-01T03:16:35.778Z,22.8
2023-04-01T03:17:38.030Z,22.8
2023-04-01T03:18:40.076Z,22.8
2023-04-01T03:19:41.916Z,22.8
2023-04-01T03:20:43.699Z,22.8
2023-04-01T03:21:45.579Z,22.8
2023-04-01T03:22:47.483Z,22.8
2023-04-01T03:23:49.309Z,22.8
2023-04-01T03:24:51.170Z,22.8
2023-04-01T03:25:53.120Z,22.8
2023-04-01T03:26:54.890Z,22.8
2023-04-01T03:27:56.735Z,22.8
2023-04-01T03:28:58.598Z,22.8
2023-04-01T03:30:00.504Z,22.8
2023-04-01T03:31:02.595Z,22.8
2023-04-01T03:32:04.533Z,22.8
2023-04-01T03:33:06.394Z,22.8
2023-04-01T03:34:08.538Z,22.8
2023-04-01T03:35:10.445Z,22.8
2023-04-01T03:36:12.468Z,22.8
2023-04-01T03:37:14.600Z,22.8
2023-04-01T03:38:16.437Z,22.8
2023-04-01T03:39:18.243Z,22.8
2023-04-01T03:40:20.213Z,22.8
2023-04-01T03:41:22.139Z,22.8
2023-04-01T03:42:24.065Z,22.8
2023-04-01T03:43:26.407Z,22.8
2023-04-01T03:44:28.169Z,22.8
2023-04-01T03:45:29.981Z,22.8
2023-04-01T03:46:33.108Z,22.8
2023-04-01T03:47:35.058Z,22.8
2023-04-01T03:48:37.065Z,22.8
2023-04-01T03:49:39.062Z,22.8
2023-04-01T03:50:40.904Z,22.8
2023-04-01T03:51:42.825Z,22.8
2023-04-01T03:52:44.596Z,22.8
2023-04-01T03:53:46.368Z,22.7
2023-04-01T03:54:48.215Z,22.7
2023-04-01T03:55:50.048Z,22.7
2023-04-01T03:56:52.115Z,22.7
2023-04-01T03:57:54.112Z,22.7
2023-04-01T03:58:56.021Z,22.8
2023-04-01T03:59:57.986Z,22.7
2023-04-01T04:00:59.816Z,22.7
2023-04-01T04:02:01.704Z,22.7
2023-04-01T04:03:03.721Z,22.7
2023-04-01T04:04:06.044Z,22.7
2023-04-01T04:05:07.970Z,22.7
2023-04-01T04:06:09.748Z,22.8
2023-04-01T04:07:11.604Z,22.8
2023-04-01T04:08:13.479Z,22.8
2023-04-01T04:09:15.221Z,22.7
2023-04-01T04:10:17.098Z,22.7
2023-04-01T04:11:18.778Z,22.7
2023-04-01T04:12:20.774Z,22.7
2023-04-01T04:13:22.628Z,22.7
2023-04-01T04:14:24.479Z,22.7
2023-04-01T04:15:26.340Z,22.7
2023-04-01T04:16:28.229Z,22.7
2023-04-01T04:17:30.610Z,22.7
2023-04-01T04:18:32.532Z,22.7
2023-04-01T04:19:34.471Z,22.7
2023-04-01T04:20:36.235Z,22.7
2023-04-01T04:21:38.140Z,22.7
2023-04-01T04:22:40.080Z,22.7
2023-04-01T04:23:42.015Z,22.6
2023-04-01T04:24:43.899Z,22.6
2023-04-01T04:25:45.755Z,22.6
2023-04-01T04:26:47.519Z,22.6
2023-04-01T04:27:49.374Z,22.6
2023-04-01T04:28:51.271Z,22.6
2023-04-01T04:29:53.145Z,22.6
2023-04-01T04:30:55.009Z,22.6
2023-04-01T04:31:56.857Z,22.6
2023-04-01T04:32:59.088Z,22.6
2023-04-01T04:34:01.333Z,22.6
2023-04-01T04:35:03.228Z,22.6
2023-04-01T04:36:05.182Z,22.6
2023-04-01T04:37:07.539Z,22.6
2023-04-01T04:38:09.446Z,22.6
2023-04-01T04:39:11.416Z,22.6
2023-04-01T04:40:13.292Z,22.6
2023-04-01T04:41:15.045Z,22.6
2023-04-01T04:42:16.879Z,22.6
2023-04-01T04:43:18.761Z,22.6
2023-04-01T04:44:20.616Z,22.6
2023-04-01T04:45:22.437Z,22.6
2023-04-01T04:46:24.414Z,22.6
2023-04-01T04:47:26.563Z,22.6
2023-04-01T04:48:28.387Z,22.6
2023-04-01T04:49:30.242Z,22.6
2023-04-01T04:50:32.097Z,22.6
2023-04-01T04:51:33.926Z,22.6
2023-04-01T04:52:35.796Z,22.6
2023-04-01T04:53:37.541Z,22.6
2023-04-01T04:54:39.396Z,22.6
2023-04-01T04:55:41.245Z,22.6
2023-04-01T04:56:43.151Z,22.6
2023-04-01T04:57:45.042Z,22.6
2023-04-01T04:58:46.924Z,22.6
2023-04-01T04:59:48.741Z,22.6
2023-04-01T05:00:50.593Z,22.6
2023-04-01T05:01:52.589Z,22.6
2023-04-01T05:02:55.038Z,22.6
2023-04-01T05:03:57.321Z,22.6
2023-04-01T05:04:59.231Z,22.6
2023-04-01T05:06:01.067Z,22.6
2023-04-01T05:07:02.997Z,22.6
2023-04-01T05:08:04.890Z,22.6
2023-04-01T05:09:06.728Z,22.6
2023-04-01T05:10:08.388Z,22.6
2023-04-01T05:11:13.090Z,22.6
2023-04-01T05:12:15.849Z,22.6
2023-04-01T05:13:17.818Z,22.6
2023-04-01T05:14:19.784Z,22.6
2023-04-01T05:15:21.505Z,22.6
2023-04-01T05:16:23.516Z,22.6
2023-04-01T05:17:25.427Z,22.6
2023-04-01T05:18:27.633Z,22.6
2023-04-01T05:19:29.538Z,22.6
2023-04-01T05:20:31.382Z,22.6
2023-04-01T05:21:33.295Z,22.6
2023-04-01T05:22:35.258Z,22.6
2023-04-01T05:23:37.140Z,22.6
2023-04-01T05:24:38.981Z,22.6
2023-04-01T05:25:40.916Z,22.6
2023-04-01T05:26:42.789Z,22.7
2023-04-01T05:27:44.583Z,22.7
2023-04-01T05:28:46.865Z,22.6
2023-04-01T05:29:49.730Z,22.7
2023-04-01T05:30:51.751Z,22.7
2023-04-01T05:31:53.751Z,22.7
2023-04-01T05:32:55.719Z,22.7
2023-04-01T05:33:57.878Z,22.7
2023-04-01T05:34:59.729Z,22.7
2023-04-01T05:36:01.500Z,22.7
2023-04-01T05:37:03.645Z,22.8
2023-04-01T05:38:05.532Z,22.8
2023-04-01T05:39:09.528Z,22.8
2023-04-01T05:40:11.449Z,22.9
2023-04-01T05:41:13.295Z,22.9
2023-04-01T05:42:15.149Z,22.9
2023-04-01T05:43:16.968Z,22.9
2023-04-01T05:44:18.843Z,22.8
2023-04-01T05:45:20.721Z,22.8
2023-04-01T05:46:22.563Z,22.7
2023-04-01T05:47:24.781Z,22.7
2023-04-01T05:48:26.699Z,22.7
2023-04-01T05:49:28.972Z,22.7
2023-04-01T05:50:30.861Z,22.8
2023-04-01T05:51:32.720Z,22.8
2023-04-01T05:52:34.637Z,22.9
2023-04-01T05:53:36.515Z,22.9
2023-04-01T05:54:38.432Z,22.9
2023-04-01T05:55:40.322Z,22.9
2023-04-01T05:56:42.166Z,22.9
2023-04-01T05:57:44.075Z,22.9
2023-04-01T05:58:45.884Z,22.9
2023-04-01T05:59:47.713Z,23
2023-04-01T06:00:53.703Z,23
2023-04-01T06:02:18.096Z,23
2023-04-01T06:03:21.258Z,23
2023-04-01T06:04:23.558Z,23
2023-04-01T06:05:25.644Z,23
2023-04-01T06:06:27.430Z,23
2023-04-01T06:07:29.381Z,23.1
2023-04-01T06:08:31.306Z,23.1
2023-04-01T06:09:33.128Z,23.1
2023-04-01T06:10:35.060Z,23.1
2023-04-01T06:11:36.942Z,23.2
2023-04-01T06:12:38.733Z,23.2
2023-04-01T06:13:40.548Z,23.2
2023-04-01T06:14:42.393Z,23.3
2023-04-01T06:15:44.240Z,23.3
2023-04-01T06:16:46.291Z,23.3
2023-04-01T06:17:48.183Z,23.3
2023-04-01T06:18:50.205Z,23.3
2023-04-01T06:19:51.945Z,23.3
2023-04-01T06:20:53.801Z,23.4
2023-04-01T06:21:55.725Z,23.4
2023-04-01T06:22:57.521Z,23.3
2023-04-01T06:23:59.459Z,23.3
2023-04-01T06:25:01.274Z,23.3
2023-04-01T06:26:03.111Z,23.3
2023-04-01T06:27:05.080Z,23.3
2023-04-01T06:28:08.937Z,23.3
2023-04-01T06:29:11.206Z,23.3
2023-04-01T06:30:13.153Z,23.3
2023-04-01T06:31:15.062Z,23.3
2023-04-01T06:32:17.584Z,23.3
2023-04-01T06:33:19.689Z,23.3
2023-04-01T06:34:21.564Z,23.2
2023-04-01T06:35:23.518Z,23.2
2023-04-01T06:36:25.686Z,23.2
2023-04-01T06:37:27.822Z,23.3
2023-04-01T06:38:29.766Z,23.3
2023-04-01T06:39:31.512Z,23.2
2023-04-01T06:40:33.431Z,23.2
2023-04-01T06:41:35.300Z,23.2
2023-04-01T06:42:37.207Z,23.2
2023-04-01T06:43:39.008Z,23.2
2023-04-01T06:44:41.082Z,23.3
2023-04-01T06:45:42.893Z,23.3
2023-04-01T06:46:44.765Z,23.3
2023-04-01T06:47:46.645Z,23.3
2023-04-01T06:48:48.804Z,23.4
2023-04-01T06:49:50.634Z,23.3
2023-04-01T06:50:52.463Z,23.4
2023-04-01T06:51:54.422Z,23.3
2023-04-01T06:52:56.676Z,23.4
2023-04-01T06:53:58.528Z,23.4
2023-04-01T06:55:00.442Z,23.5
2023-04-01T06:56:02.340Z,23.4
2023-04-01T06:57:04.266Z,23.4
2023-04-01T06:58:06.130Z,23.3
2023-04-01T06:59:07.981Z,23.2
2023-04-01T07:00:09.886Z,23.2
2023-04-01T07:01:11.789Z,23.2
2023-04-01T07:02:13.952Z,23.2
2023-04-01T07:03:15.877Z,23.2
2023-04-01T07:04:17.778Z,23.3
2023-04-01T07:05:19.708Z,23.4
2023-04-01T07:06:21.763Z,23.4
2023-04-01T07:07:23.703Z,23.4
2023-04-01T07:08:25.586Z,23.4
2023-04-01T07:09:27.457Z,23.4
2023-04-01T07:10:29.362Z,23.5
2023-04-01T07:11:31.203Z,23.5
2023-04-01T07:12:33.171Z,23.5
2023-04-01T07:13:35.146Z,23.5
2023-04-01T07:14:36.973Z,23.4
2023-04-01T07:15:39.126Z,23.4
2023-04-01T07:16:41.106Z,23.4
2023-04-01T07:17:43.229Z,23.5
2023-04-01T07:18:45.400Z,23.5
2023-04-01T07:19:47.236Z,23.5
2023-04-01T07:20:49.135Z,23.5
2023-04-01T07:21:51.033Z,23.5
2023-04-01T07:22:52.959Z,23.5
2023-04-01T07:23:55.139Z,23.5
2023-04-01T07:24:57.001Z,23.5
2023-04-01T07:25:58.855Z,23.5
2023-04-01T07:27:00.702Z,23.5
2023-04-01T07:28:02.631Z,23.6
2023-04-01T07:29:04.503Z,23.6
2023-04-01T07:30:06.456Z,23.6
2023-04-01T07:31:08.398Z,23.6
2023-04-01T07:32:10.619Z,23.6
2023-04-01T07:33:12.508Z,23.6
2023-04-01T07:34:14.393Z,23.6
2023-04-01T07:35:16.280Z,23.6
2023-04-01T07:36:18.125Z,23.6
2023-04-01T07:37:20.295Z,23.6
2023-04-01T07:38:22.194Z,23.6
2023-04-01T07:39:24.477Z,23.6
2023-04-01T07:40:26.293Z,23.6
2023-04-01T07:41:28.215Z,23.6
2023-04-01T07:42:30.031Z,23.6
2023-04-01T07:43:31.942Z,23.6
2023-04-01T07:44:33.844Z,23.6
2023-04-01T07:45:36.020Z,23.6
2023-04-01T07:46:38.358Z,23.6
2023-04-01T07:47:40.695Z,23.6
2023-04-01T07:48:42.718Z,23.6
2023-04-01T07:49:44.656Z,23.6
2023-04-01T07:50:47.858Z,23.6
2023-04-01T07:51:54.577Z,23.6
2023-04-01T07:52:56.461Z,23.6
2023-04-01T07:53:58.385Z,23.6
2023-04-01T07:55:00.296Z,23.6
2023-04-01T07:56:02.131Z,23.6
2023-04-01T07:57:04.003Z,23.6
2023-04-01T07:58:06.069Z,23.5
2023-04-01T07:59:07.989Z,23.6
2023-04-01T08:00:09.788Z,23.6
2023-04-01T08:01:11.573Z,23.6
2023-04-01T08:02:13.387Z,23.6
2023-04-01T08:03:15.593Z,23.6
2023-04-01T08:04:17.986Z,23.5
2023-04-01T08:05:20.227Z,23.6
2023-04-01T08:06:21.964Z,23.6
2023-04-01T08:07:23.818Z,23.6
2023-04-01T08:08:25.715Z,23.6
2023-04-01T08:09:27.605Z,23.6
2023-04-01T08:10:29.465Z,23.6
2023-04-01T08:11:31.329Z,23.6
2023-04-01T08:12:33.340Z,23.6
2023-04-01T08:13:35.211Z,23.6
2023-04-01T08:14:37.072Z,23.6
2023-04-01T08:15:38.813Z,23.6
2023-04-01T08:16:40.724Z,23.6
2023-04-01T08:17:42.730Z,23.6
2023-04-01T08:18:44.868Z,23.5
2023-04-01T08:19:46.611Z,23.5
2023-04-01T08:20:48.697Z,23.5
2023-04-01T08:21:50.515Z,23.5
2023-04-01T08:22:52.269Z,23.5
2023-04-01T08:23:54.121Z,23.5
2023-04-01T08:24:55.962Z,23.5
2023-04-01T08:25:57.833Z,23.5
2023-04-01T08:26:59.670Z,23.5
2023-04-01T08:28:01.622Z,23.5
2023-04-01T08:29:03.479Z,23.5
2023-04-01T08:30:05.339Z,23.5
2023-04-01T08:31:07.651Z,23.5
2023-04-01T08:32:09.681Z,23.5
2023-04-01T08:33:11.905Z,23.5
2023-04-01T08:34:13.972Z,23.5
2023-04-01T08:35:15.795Z,23.5
2023-04-01T08:36:17.893Z,23.5
2023-04-01T08:37:19.916Z,23.5
2023-04-01T08:38:21.780Z,23.5
2023-04-01T08:39:23.684Z,23.5
2023-04-01T08:40:25.395Z,23.5
2023-04-01T08:41:27.244Z,23.5
2023-04-01T08:42:29.060Z,23.5
2023-04-01T08:43:30.936Z,23.5
2023-04-01T08:44:32.772Z,23.5
2023-04-01T08:45:34.726Z,23.5
2023-04-01T08:46:37.928Z,23.5
2023-04-01T08:47:39.769Z,23.6
2023-04-01T08:48:41.906Z,23.6
2023-04-01T08:49:43.754Z,23.6
2023-04-01T08:50:45.600Z,23.6
2023-04-01T08:51:47.635Z,23.6
2023-04-01T08:52:49.495Z,23.5
2023-04-01T08:53:51.224Z,23.5
2023-04-01T08:54:52.999Z,23.6
2023-04-01T08:55:54.779Z,23.6
2023-04-01T08:56:56.653Z,23.5
2023-04-01T08:57:58.670Z,23.6
2023-04-01T08:59:00.559Z,23.6
2023-04-01T09:00:02.510Z,23.6
2023-04-01T09:01:04.398Z,23.6
2023-04-01T09:02:06.272Z,23.6
2023-04-01T09:03:08.250Z,23.6
2023-04-01T09:04:11.019Z,23.6
2023-04-01T09:05:13.147Z,23.6
2023-04-01T09:06:15.042Z,23.6
2023-04-01T09:07:17.060Z,23.6
2023-04-01T09:08:18.882Z,23.6
2023-04-01T09:09:20.832Z,23.6
2023-04-01T09:10:22.710Z,23.6
2023-04-01T09:11:24.693Z,23.6
2023-04-01T09:12:26.801Z,23.6
2023-04-01T09:13:28.697Z,23.6
2023-04-01T09:14:30.603Z,23.6
2023-04-01T09:15:32.771Z,23.6
2023-04-01T09:16:35.971Z,23.6
2023-04-01T09:17:38.557Z,23.6
2023-04-01T09:18:40.562Z,23.6
2023-04-01T09:19:42.490Z,23.6
2023-04-01T09:20:44.364Z,23.6
2023-04-01T09:21:46.300Z,23.6
2023-04-01T09:22:48.217Z,23.6
2023-04-01T09:23:50.058Z,23.6
2023-04-01T09:24:51.918Z,23.7
2023-04-01T09:25:53.831Z,23.7
2023-04-01T09:26:55.672Z,23.7
2023-04-01T09:27:58.095Z,23.7
2023-04-01T09:29:00.010Z,23.7
2023-04-01T09:30:01.887Z,23.7
2023-04-01T09:31:03.814Z,23.7
2023-04-01T09:32:05.741Z,23.6
2023-04-01T09:33:07.609Z,23.6
2023-04-01T09:34:09.763Z,23.6
2023-04-01T09:35:11.650Z,23.6
2023-04-01T09:36:13.664Z,23.6
2023-04-01T09:37:15.726Z,23.6
2023-04-01T09:38:17.598Z,23.6
2023-04-01T09:39:19.413Z,23.6
2023-04-01T09:40:21.389Z,23.6
2023-04-01T09:41:23.165Z,23.6
2023-04-01T09:42:25.109Z,23.6
2023-04-01T09:43:27.020Z,23.7
2023-04-01T09:44:28.878Z,23.6
2023-04-01T09:45:30.899Z,23.6
2023-04-01T09:46:33.919Z,23.6
2023-04-01T09:47:36.076Z,23.6
2023-04-01T09:48:38.018Z,23.6
2023-04-01T09:49:39.854Z,23.6
2023-04-01T09:50:41.622Z,23.6
2023-04-01T09:51:44.074Z,23.6
2023-04-01T09:52:46.504Z,23.6
2023-04-01T09:53:48.623Z,23.6
2023-04-01T09:54:50.435Z,23.6
2023-04-01T09:55:52.289Z,23.6
2023-04-01T09:56:54.222Z,23.6
2023-04-01T09:57:56.139Z,23.6
2023-04-01T09:58:58.062Z,23.6
2023-04-01T09:59:59.887Z,23.6
2023-04-01T10:01:01.988Z,23.6
2023-04-01T10:02:03.978Z,23.6
2023-04-01T10:03:06.327Z,23.6
2023-04-01T10:04:08.419Z,23.6
2023-04-01T10:05:10.320Z,23.6
2023-04-01T10:06:12.499Z,23.6
2023-04-01T10:07:14.866Z,23.6
2023-04-01T10:08:16.746Z,23.6
2023-04-01T10:09:18.770Z,23.6
2023-04-01T10:10:21.256Z,23.6
2023-04-01T10:11:23.262Z,23.6
2023-04-01T10:12:25.195Z,23.6
2023-04-01T10:13:27.011Z,23.6
2023-04-01T10:14:28.857Z,23.6
2023-04-01T10:15:30.771Z,23.6
2023-04-01T10:16:34.075Z,23.6
2023-04-01T10:17:36.279Z,23.6
2023-04-01T10:18:38.098Z,23.6
2023-04-01T10:19:39.962Z,23.6
2023-04-01T10:20:41.868Z,23.6
2023-04-01T10:21:43.824Z,23.6
2023-04-01T10:22:45.795Z,23.6
2023-04-01T10:23:47.660Z,23.6
2023-04-01T10:24:49.543Z,23.6
2023-04-01T10:25:51.473Z,23.6
2023-04-01T10:26:53.327Z,23.6
2023-04-01T10:27:55.145Z,23.6
2023-04-01T10:28:57.024Z,23.6
2023-04-01T10:29:58.715Z,23.6
2023-04-01T10:31:00.608Z,23.6
2023-04-01T10:32:02.524Z,23.6
2023-04-01T10:33:04.845Z,23.6
2023-04-01T10:34:07.164Z,23.5
2023-04-01T10:35:09.041Z,23.5
2023-04-01T10:36:10.975Z,23.5
2023-04-01T10:37:13.045Z,23.5
2023-04-01T10:38:14.892Z,23.5
2023-04-01T10:39:16.645Z,23.5
2023-04-01T10:40:18.496Z,23.5
2023-04-01T10:41:20.436Z,23.5
2023-04-01T10:42:22.214Z,23.5
2023-04-01T10:43:24.073Z,23.6
2023-04-01T10:44:25.886Z,23.6
2023-04-01T10:45:27.746Z,23.6
2023-04-01T10:46:29.851Z,23.6
2023-04-01T10:47:32.053Z,23.5
2023-04-01T10:48:34.076Z,23.5
2023-04-01T10:49:36.056Z,23.5
2023-04-01T10:50:37.906Z,23.5
2023-04-01T10:51:39.802Z,23.5
2023-04-01T10:52:41.716Z,23.5
2023-04-01T10:53:43.557Z,23.6
2023-04-01T10:54:45.412Z,23.5
2023-04-01T10:55:47.349Z,23.5
2023-04-01T10:56:49.284Z,23.6
2023-04-01T10:57:51.460Z,23.6
2023-04-01T10:58:53.432Z,23.6
2023-04-01T10:59:55.603Z,23.6
2023-04-01T11:00:57.449Z,23.6
2023-04-01T11:02:08.238Z,23.6
2023-04-01T11:03:14.545Z,23.6
2023-04-01T11:04:16.977Z,23.6
2023-04-01T11:05:20.725Z,23.6
2023-04-01T11:06:23.049Z,23.6
2023-04-01T11:07:24.938Z,23.6
2023-04-01T11:08:26.742Z,23.6
2023-04-01T11:09:28.672Z,23.6
2023-04-01T11:10:30.580Z,23.6
2023-04-01T11:11:32.468Z,23.6
2023-04-01T11:12:34.373Z,23.6
2023-04-01T11:13:36.317Z,23.6
2023-04-01T11:14:38.399Z,23.6
2023-04-01T11:15:40.221Z,23.6
2023-04-01T11:16:42.096Z,23.6
2023-04-01T11:17:44.158Z,23.6
2023-04-01T11:18:46.152Z,23.6
2023-04-01T11:19:48.043Z,23.5
2023-04-01T11:20:49.892Z,23.6
2023-04-01T11:21:51.751Z,23.5
2023-04-01T11:22:53.597Z,23.5
2023-04-01T11:25:07.585Z,23.5
2023-04-01T11:26:09.486Z,23.5
2023-04-01T11:27:11.475Z,23.6
2023-04-01T11:28:13.865Z,23.6
2023-04-01T11:29:15.719Z,23.6
2023-04-01T11:30:17.691Z,23.6
2023-04-01T11:31:19.474Z,23.5
2023-04-01T11:32:21.432Z,23.5
2023-04-01T11:33:23.356Z,23.6
2023-04-01T11:34:25.286Z,23.6
2023-04-01T11:35:27.064Z,23.5
2023-04-01T11:36:29.026Z,23.5
2023-04-01T11:37:30.871Z,23.5
2023-04-01T11:38:32.903Z,23.5
2023-04-01T11:39:34.775Z,23.5
2023-04-01T11:40:36.619Z,23.5
2023-04-01T11:41:38.469Z,23.5
2023-04-01T11:42:40.410Z,23.5
2023-04-01T11:43:42.267Z,23.5
2023-04-01T11:44:44.122Z,23.5
2023-04-01T11:45:46.044Z,23.5
2023-04-01T11:46:47.902Z,23.5
2023-04-01T11:47:50.015Z,23.5
2023-04-01T11:48:52.200Z,23.5
2023-04-01T11:49:53.944Z,23.5
2023-04-01T11:50:55.958Z,23.5
2023-04-01T11:51:57.916Z,23.5
2023-04-01T11:52:59.911Z,23.5
2023-04-01T11:54:01.805Z,23.5
2023-04-01T11:55:03.795Z,23.5
2023-04-01T11:56:05.703Z,23.5
2023-04-01T11:57:07.568Z,23.5
2023-04-01T11:58:09.734Z,23.5
2023-04-01T11:59:11.517Z,23.5
2023-04-01T12:00:13.411Z,23.5
2023-04-01T12:01:15.258Z,23.5
2023-04-01T12:02:18.246Z,23.5
2023-04-01T12:03:23.449Z,23.5
2023-04-01T12:04:26.103Z,23.5
2023-04-01T12:05:28.192Z,23.5
2023-04-01T12:06:29.934Z,23.5
2023-04-01T12:07:31.782Z,23.4
2023-04-01T12:08:33.630Z,23.4
2023-04-01T12:09:35.544Z,23.4
2023-04-01T12:10:37.436Z,23.4
2023-04-01T12:11:39.356Z,23.4
2023-04-01T12:12:45.412Z,23.4
2023-04-01T12:14:03.697Z,23.4
2023-04-01T12:15:05.511Z,23.4
2023-04-01T12:16:07.359Z,23.4
2023-04-01T12:17:09.474Z,23.4
2023-04-01T12:18:11.404Z,23.4
2023-04-01T12:19:13.527Z,23.4
2023-04-01T12:20:15.427Z,23.4
2023-04-01T12:21:17.337Z,23.4
2023-04-01T12:22:19.282Z,23.4
2023-04-01T12:23:21.050Z,23.4
2023-04-01T12:24:22.887Z,23.3
2023-04-01T12:25:24.736Z,23.3
2023-04-01T12:26:26.632Z,23.3
2023-04-01T12:27:28.604Z,23.3
2023-04-01T12:28:30.492Z,23.3
2023-04-01T12:29:32.362Z,23.3
2023-04-01T12:30:34.243Z,23.3
2023-04-01T12:31:36.170Z,23.3
2023-04-01T12:32:38.315Z,23.3
2023-04-01T12:33:40.358Z,23.3
2023-04-01T12:34:42.208Z,23.4
2023-04-01T12:35:44.152Z,23.4
2023-04-01T12:36:46.117Z,23.4
2023-04-01T12:37:49.622Z,23.4
2023-04-01T12:38:51.548Z,23.4
2023-04-01T12:39:53.471Z,23.4
2023-04-01T12:40:55.349Z,23.3
2023-04-01T12:41:57.208Z,23.3
2023-04-01T12:42:59.002Z,23.3
2023-04-01T12:44:00.907Z,23.3
2023-04-01T12:45:02.873Z,23.3
2023-04-01T12:46:04.730Z,23.3
2023-04-01T12:47:06.949Z,23.3
2023-04-01T12:48:08.846Z,23.3
2023-04-01T12:49:10.985Z,23.3
2023-04-01T12:50:12.823Z,23.3
2023-04-01T12:51:14.681Z,23.3
2023-04-01T12:52:16.706Z,23.3
2023-04-01T12:53:18.582Z,23.3
2023-04-01T12:54:20.441Z,23.3
2023-04-01T12:55:22.301Z,23.3
2023-04-01T12:56:24.264Z,23.3
2023-04-01T12:57:26.185Z,23.3
2023-04-01T12:58:28.236Z,23.3
2023-04-01T12:59:30.124Z,23.3
2023-04-01T13:00:32.148Z,23.3
2023-04-01T13:01:34.016Z,23.3
2023-04-01T13:02:36.259Z,23.3
2023-04-01T13:03:38.130Z,23.3
2023-04-01T13:04:40.250Z,23.3
2023-04-01T13:05:42.117Z,23.3
2023-04-01T13:06:44.011Z,23.3
2023-04-01T13:07:45.914Z,23.3
2023-04-01T13:08:47.768Z,23.3
2023-04-01T13:09:52.114Z,23.3
2023-04-01T13:10:54.221Z,23.3
2023-04-01T13:11:56.116Z,23.3
2023-04-01T13:12:58.138Z,23.2
2023-04-01T13:14:00.393Z,23.2
2023-04-01T13:15:03.176Z,23.2
2023-04-01T13:16:08.152Z,23.2
2023-04-01T13:17:10.244Z,23.2
2023-04-01T13:18:12.200Z,23.2
2023-04-01T13:19:14.061Z,23.2
2023-04-01T13:20:15.889Z,23.2
2023-04-01T13:21:17.822Z,23.2
2023-04-01T13:22:19.585Z,23.2
2023-04-01T13:23:21.550Z,23.2
2023-04-01T13:24:23.493Z,23.2
2023-04-01T13:25:25.339Z,23.2
2023-04-01T13:26:27.211Z,23.2
2023-04-01T13:27:28.941Z,23.2
2023-04-01T13:28:30.720Z,23.2
2023-04-01T13:29:32.642Z,23.2
2023-04-01T13:30:34.601Z,23.2
2023-04-01T13:31:37.528Z,23.2
2023-04-01T13:32:43.558Z,23.2
2023-04-01T13:33:45.999Z,23.3
2023-04-01T13:34:47.902Z,23.3
2023-04-01T13:35:49.707Z,23.3
2023-04-01T13:36:51.745Z,23.3
2023-04-01T13:37:53.561Z,23.3
2023-04-01T13:38:55.543Z,23.3
2023-04-01T13:39:57.400Z,23.3
2023-04-01T13:41:03.412Z,23.3
2023-04-01T13:42:05.905Z,23.3
2023-04-01T13:43:07.747Z,23.3
2023-04-01T13:44:09.619Z,23.3
2023-04-01T13:45:11.529Z,23.3
2023-04-01T13:46:13.343Z,23.3
2023-04-01T13:47:15.488Z,23.3
2023-04-01T13:48:17.332Z,23.3
2023-04-01T13:49:19.168Z,23.3
2023-04-01T13:50:21.047Z,23.4